• Join FlightAware (Why Join?)
  • Login
  • US Flag 
03:10AM EDT


 

Airport Tracker/Info


-or-


 

Live Flight TrackerFlight Track Log ✈ N220JL ✈ 29-Jul-2013 ✈ KAXH - KRYY

Flight Track Log - Related Links

Times and Time Zones

All times are in EDT time to prevent confusion due to time zone crossing. See the N220JL flight status page for this flight to view local times or setup timezone preferences in your user account.

Time Position Orientation Groundspeed Altitude Reporting Facility
EDT Latitude Longitude Course Direction KTS MPH feet Rate Location/Type
01:33PM 29.5078 -95.4939 275° West 149 171 200  Level FlightAware ADS-B
01:33PM 29.5081 -95.4993 274° West 160 184 300 1,320 Climbing FlightAware ADS-B
01:33PM 29.5077 -95.5025 262° West 164 189 400 1,080 Climbing FlightAware ADS-B
01:34PM 29.4984 -95.5164 232° Southwest 164 189 700 1,200 Climbing FlightAware ADS-B
01:34PM 29.4862 -95.5198 194° South 184 212 1,100 1,440 Climbing FlightAware ADS-B
01:34PM 29.4739 -95.5159 165° South 193 222 1,400 1,140 Climbing FlightAware ADS-B
01:34PM 29.4639 -95.5082 146° Southeast 207 238 1,600 1,200 Climbing FlightAware ADS-B
01:34PM 29.4538 -95.4984 140° Southeast 218 251 1,900 900 Climbing FlightAware ADS-B
01:35PM 29.4489 -95.4939 141° Southeast 226 260 1,900 840 Level FlightAware ADS-B
01:35PM 29.4206 -95.4799 157° South 234 269 2,400 840 Climbing FlightAware ADS-B
01:35PM 29.3967 -95.4716 163° South 257 296 2,600 960 Climbing FlightAware ADS-B
01:36PM 29.3782 -95.4488 133° Southeast 257 296 3,100 780 Climbing FlightAware ADS-B
01:36PM 29.3769 -95.4366 97° East 277 319 3,000 -360 Descending FlightAware ADS-B
01:36PM 29.3804 -95.3934 85° East 286 329 2,900 -300 Descending FlightAware ADS-B
01:37PM 29.3811 -95.3753 87° East 278 320 2,800  Descending FlightAware ADS-B
01:37PM 29.3817 -95.3603 87° East 272 313 2,900 420 Climbing FlightAware ADS-B
01:37PM 29.3817 -95.3543 90° East 268 308 2,900 420 Level FlightAware ADS-B
01:37PM 29.3821 -95.3424 88° East 259 298 3,000 720 Climbing FlightAware ADS-B
01:37PM 29.3821 -95.3338 90° East 252 290 3,100 900 Climbing FlightAware ADS-B
01:37PM 29.3824 -95.3258 88° East 247 284 3,200 300 Climbing FlightAware ADS-B
01:37PM 29.3834 -95.3105 86° East 242 278 3,200 180 Level FlightAware ADS-B
01:38PM 29.3845 -95.2937 86° East 237 273 3,300 780 Climbing FlightAware ADS-B
01:38PM 29.3852 -95.2825 86° East 231 266 3,500 1,020 Climbing FlightAware ADS-B
01:38PM 29.3866 -95.2706 82° East 226 260 3,600 840 Climbing FlightAware ADS-B
01:38PM 29.3869 -95.2683 81° East 224 258 3,700 840 Climbing FlightAware ADS-B
01:38PM 29.3883 -95.2637 71° East 223 257 3,700  Level FlightAware ADS-B
01:38PM 29.3894 -95.2603 70° East 222 255 3,700 420 Level FlightAware ADS-B
01:38PM 29.3942 -95.2483 65° Northeast 221 254 3,800 540 Climbing FlightAware ADS-B
01:38PM 29.3983 -95.2376 66° East 219 252 3,900 480 Climbing FlightAware ADS-B
01:39PM 29.4037 -95.2237 66° East 216 249 4,000 600 Climbing FlightAware ADS-B
01:39PM 29.4066 -95.2167 65° Northeast 214 246 4,100 1,200 Climbing FlightAware ADS-B
01:39PM 29.4075 -95.2130 74° East 213 245 4,200 720 Climbing FlightAware ADS-B
01:39PM 29.4089 -95.2084 71° East 213 245 4,200 720 Level FlightAware ADS-B
01:39PM 29.4096 -95.2041 79° East 212 244 4,300 840 Climbing FlightAware ADS-B
01:39PM 29.4096 -95.2002 90° East 212 244 4,300 600 Level FlightAware ADS-B
01:39PM 29.4103 -95.1929 84° East 214 246 4,400 960 Climbing FlightAware ADS-B
01:39PM 29.4106 -95.1796 89° East 226 260 4,600 600 Climbing FlightAware ADS-B
01:40PM 29.4113 -95.1447 89° East 256 295 4,800 240 Climbing FlightAware ADS-B
01:40PM 29.4113 -95.1228 90° East 269 310 4,800  Level FlightAware ADS-B
01:40PM 29.4109 -95.0993 91° East 280 322 4,800  Level FlightAware ADS-B
01:41PM 29.4109 -95.0760 90° East 290 334 4,800 360 Level FlightAware ADS-B
01:41PM 29.4106 -95.0508 91° East 294 338 5,000 900 Climbing FlightAware ADS-B
01:41PM 29.4106 -95.0261 90° East 290 334 5,300 1,260 Climbing FlightAware ADS-B
01:41PM 29.4109 -95.0086 89° East 288 331 5,600 1,380 Climbing FlightAware ADS-B
01:41PM 29.4155 -94.9939 70° East 287 330 5,800 1,380 Climbing FlightAware ADS-B
01:41PM 29.4183 -94.9897 53° Northeast 286 329 5,900 2,520 Climbing FlightAware ADS-B
01:42PM 29.4217 -94.9858 45° Northeast 285 328 6,100 1,980 Climbing FlightAware ADS-B
01:42PM 29.4266 -94.9808 42° Northeast 283 326 6,200 1,980 Climbing FlightAware ADS-B
01:42PM 29.4307 -94.9778 33° Northeast 282 325 6,400 1,980 Climbing FlightAware ADS-B
01:42PM 29.4365 -94.9752 21° North 279 321 6,500 1,920 Climbing FlightAware ADS-B
01:42PM 29.4771 -94.9853 348° North 255 293 7,700 1,980 Climbing FlightAware ADS-B
01:43PM 29.5160 -95.0090 332° Northwest 238 274 9,000 1,920 Climbing FlightAware
01:44PM 29.5684 -95.0153 41° Northeast 239 275 10,700 1,920 Climbing FlightAware ADS-B
01:44PM 29.5713 -95.0112 51° Northeast 239 275 10,800 1,800 Climbing FlightAware ADS-B
01:44PM 29.5817 -94.9904 63° Northeast 237 273 11,400 1,320 Climbing FlightAware ADS-B
01:45PM 29.6040 -94.9430 62° Northeast 253 291 12,200 960 Climbing FlightAware ADS-B
01:45PM 29.6070 -94.9356 65° Northeast 258 297 12,200 300 Level FlightAware ADS-B
01:45PM 29.6108 -94.9170 77° East 268 308 12,300 360 Climbing FlightAware ADS-B
01:46PM 29.6176 -94.8717 80° East 288 331 12,500 360 Climbing FlightAware ADS-B
01:46PM 29.6211 -94.8508 79° East 295 339 12,600 240 Climbing FlightAware ADS-B
01:46PM 29.6304 -94.8026 77° East 306 352 12,700 240 Climbing FlightAware ADS-B
01:47PM 29.6400 -94.7536 77° East 313 360 12,900 1,320 Climbing FlightAware ADS-B
01:48PM 29.6523 -94.6907 77° East 292 336 14,300 1,980 Climbing FlightAware ADS-B
01:48PM 29.6582 -94.6676 73° East 282 325 14,800 1,860 Climbing FlightAware ADS-B
01:48PM 29.6685 -94.6330 71° East 271 312 15,600 1,920 Climbing FlightAware ADS-B
01:49PM 29.6736 -94.6132 73° East 263 303 16,100 960 Climbing FlightAware ADS-B
01:51PM 29.7142 -94.4541 74° East 291 335 17,800 720 Climbing FlightAware ADS-B
01:51PM 29.7265 -94.4074 73° East 305 351 18,000 660 Climbing FlightAware ADS-B
01:52PM 29.7482 -94.3235 74° East 305 351 18,800 840 Climbing FlightAware ADS-B
01:52PM 29.7577 -94.2863 74° East 303 349 19,100 840 Climbing FlightAware ADS-B
01:53PM 29.7694 -94.2396 74° East 302 348 19,600 900 Climbing FlightAware ADS-B
01:55PM 29.8161 -94.0578 74° East 294 338 21,400 900 Climbing FlightAware ADS-B
01:55PM 29.8209 -94.0386 74° East 293 337 21,600 900 Climbing FlightAware ADS-B
01:56PM 29.8309 -93.9997 73° East 291 335 22,000 840 Climbing FlightAware ADS-B
01:57PM 29.8652 -93.8645 74° East 289 333 23,300 840 Climbing FlightAware ADS-B
01:57PM 29.8728 -93.8336 74° East 289 333 23,600 900 Climbing FlightAware ADS-B
01:58PM 29.8841 -93.7889 74° East 289 333 24,100 900 Climbing FlightAware ADS-B
01:59PM 29.9064 -93.7001 74° East 287 330 25,000 840 Climbing FlightAware ADS-B
01:59PM 29.9160 -93.6617 74° East 286 329 25,400 840 Climbing FlightAware ADS-B
02:00PM 29.9274 -93.6175 73° East 286 329 25,800 900 Climbing FlightAware ADS-B
02:00PM 29.9380 -93.5739 74° East 285 328 26,300 900 Climbing FlightAware ADS-B
02:01PM 29.9493 -93.5295 74° East 283 326 26,700 840 Climbing FlightAware ADS-B
02:02PM 29.9709 -93.4427 74° East 279 321 27,600 900 Climbing FlightAware ADS-B
02:02PM 29.9813 -93.4001 74° East 277 319 28,100 900 Climbing FlightAware ADS-B
02:03PM 29.9919 -93.3573 74° East 275 316 28,500 840 Climbing FlightAware ADS-B
02:03PM 30.0025 -93.3148 74° East 273 314 29,000 780 Climbing FlightAware ADS-B
02:04PM 30.0132 -93.2722 74° East 276 318 29,300 540 Climbing FlightAware ADS-B
02:04PM 30.0241 -93.2276 74° East 280 322 29,600 480 Climbing FlightAware ADS-B
02:05PM 30.0335 -93.1889 74° East 282 325 29,800 480 Climbing FlightAware ADS-B
02:05PM 30.0413 -93.1564 74° East 284 327 30,000 540 Climbing FlightAware ADS-B
02:06PM 30.0526 -93.1122 74° East 284 327 30,300 540 Climbing FlightAware ADS-B
02:06PM 30.0643 -93.0643 74° East 286 329 30,600 540 Climbing FlightAware ADS-B
02:07PM 30.0756 -93.0187 74° East 287 330 30,900 540 Climbing FlightAware ADS-B
02:07PM 30.0863 -92.9738 75° East 288 331 31,200 480 Climbing FlightAware ADS-B
02:08PM 30.0973 -92.9293 74° East 288 331 31,400 480 Climbing FlightAware ADS-B
02:08PM 30.1083 -92.8851 74° East 288 331 31,700 600 Climbing FlightAware ADS-B
02:09PM 30.1189 -92.8405 75° East 288 331 32,000 540 Climbing FlightAware ADS-B
02:09PM 30.1313 -92.7903 74° East 287 330 32,300 540 Climbing FlightAware ADS-B
02:10PM 30.1420 -92.7460 74° East 287 330 32,600 540 Climbing FlightAware ADS-B
02:10PM 30.1529 -92.7011 74° East 286 329 32,900 480 Climbing FlightAware ADS-B
02:11PM 30.1639 -92.6557 74° East 286 329 33,100 480 Climbing FlightAware ADS-B
02:11PM 30.1745 -92.6108 75° East 286 329 33,400 540 Climbing FlightAware ADS-B
02:12PM 30.1855 -92.5657 74° East 285 328 33,700 600 Climbing FlightAware ADS-B
02:12PM 30.1951 -92.5265 74° East 283 326 34,000 480 Climbing FlightAware ADS-B
02:13PM 30.2058 -92.4818 75° East 282 325 34,200 480 Climbing FlightAware ADS-B
02:13PM 30.2164 -92.4382 74° East 282 325 34,500 600 Climbing FlightAware ADS-B
02:14PM 30.2298 -92.3811 75° East 282 325 34,900 420 Climbing FlightAware ADS-B
02:15PM 30.2404 -92.3366 75° East 285 328 35,000 240 Climbing FlightAware ADS-B
02:15PM 30.2518 -92.2904 74° East 288 331 35,200 360 Climbing FlightAware ADS-B
02:16PM 30.2625 -92.2457 74° East 291 335 35,400 240 Climbing FlightAware ADS-B
02:16PM 30.2734 -92.1991 75° East 293 337 35,500 240 Climbing FlightAware ADS-B
02:17PM 30.2847 -92.1525 74° East 295 339 35,700 360 Climbing FlightAware ADS-B
02:17PM 30.2958 -92.1054 75° East 296 341 35,900 300 Climbing FlightAware ADS-B
02:18PM 30.3108 -92.0420 75° East 296 341 36,100 240 Climbing FlightAware ADS-B
02:19PM 30.3472 -91.8865 75° East 297 342 36,600 300 Climbing FlightAware ADS-B
02:20PM 30.3589 -91.8375 75° East 297 342 36,800 240 Climbing FlightAware ADS-B
02:21PM 30.3799 -91.7489 75° East 298 343 37,000 120 Climbing FlightAware ADS-B
02:21PM 30.3908 -91.7004 75° East 303 349 37,000  Level FlightAware ADS-B
02:23PM 30.4320 -91.5241 75° East 315 362 37,000  Level FlightAware ADS-B
02:27PM 30.5457 -91.2164 67° East 314 361 37,000  Level FlightAware ADS-B
02:28PM 30.6127 -91.1343 47° Northeast 316 364 37,000  Level FlightAware ADS-B
02:29PM 30.6952 -91.0315 47° Northeast 317 365 37,000  Level FlightAware ADS-B
02:30PM 30.7577 -90.9529 47° Northeast 318 366 37,000  Level FlightAware ADS-B
02:34PM 30.9290 -90.6630 55° Northeast 322 371 37,000  Level FlightAware
02:34PM 30.9560 -90.6160 56° Northeast 322 371 37,000  Level FlightAware
02:35PM 30.9860 -90.5620 57° Northeast 322 371 37,000  Level FlightAware
02:36PM 31.0110 -90.5170 57° Northeast 322 371 37,000  Level FlightAware
02:36PM 31.0670 -90.4120 58° Northeast 325 374 37,000  Level FlightAware
02:37PM 31.0920 -90.3670 57° Northeast 325 374 37,000  Level FlightAware
02:38PM 31.1170 -90.3220 57° Northeast 325 374 37,000  Level FlightAware
02:39PM 31.1730 -90.2180 58° Northeast 325 374 37,000  Level FlightAware
02:39PM 31.2010 -90.1670 57° Northeast 325 374 37,000  Level FlightAware
02:40PM 31.2280 -90.1170 58° Northeast 325 374 37,000  Level FlightAware
02:40PM 31.2560 -90.0640 58° Northeast 326 375 37,000  Level FlightAware
02:41PM 31.2820 -90.0160 58° Northeast 326 375 37,000  Level FlightAware
02:41PM 31.3130 -89.9600 57° Northeast 327 376 37,000  Level FlightAware
02:42PM 31.3400 -89.9090 58° Northeast 327 376 37,000  Level FlightAware
02:43PM 31.3680 -89.8590 57° Northeast 328 377 37,000  Level FlightAware
02:43PM 31.3960 -89.8060 58° Northeast 328 377 37,000  Level FlightAware
02:44PM 31.4300 -89.7430 58° Northeast 328 377 37,000  Level FlightAware
02:44PM 31.4540 -89.6990 57° Northeast 328 377 37,000  Level FlightAware
02:45PM 31.4870 -89.6370 58° Northeast 328 377 37,000  Level FlightAware
02:46PM 31.5110 -89.5900 59° Northeast 328 377 37,000  Level FlightAware
02:46PM 31.5350 -89.5470 57° Northeast 328 377 37,000  Level FlightAware
02:47PM 31.5600 -89.4990 59° Northeast 328 377 37,000  Level FlightAware
02:48PM 31.5840 -89.4530 59° Northeast 328 377 37,000  Level FlightAware
02:48PM 31.6090 -89.4070 57° Northeast 328 377 37,000  Level FlightAware
02:49PM 31.6340 -89.3610 57° Northeast 328 377 37,000  Level FlightAware
02:49PM 31.6600 -89.3120 58° Northeast 328 377 37,000  Level FlightAware
02:50PM 31.6840 -89.2660 58° Northeast 328 377 37,000  Level FlightAware
02:51PM 31.7090 -89.2190 58° Northeast 328 377 37,000  Level FlightAware
02:51PM 31.7340 -89.1730 57° Northeast 328 377 37,000  Level FlightAware
02:52PM 31.7570 -89.1290 58° Northeast 328 377 37,000  Level FlightAware
02:52PM 31.7810 -89.0830 58° Northeast 328 377 37,000  Level FlightAware
02:53PM 31.8060 -89.0370 57° Northeast 328 377 37,000  Level FlightAware
02:54PM 31.8310 -88.9900 58° Northeast 328 377 37,000  Level FlightAware
02:54PM 31.9260 -88.8110 58° Northeast 333 383 37,000  Level FlightAware
02:55PM 31.9540 -88.7590 58° Northeast 333 383 37,000  Level FlightAware
02:55PM 31.9800 -88.7120 57° Northeast 333 383 37,000  Level FlightAware
02:56PM 32.0070 -88.6630 57° Northeast 333 383 37,000  Level FlightAware
02:57PM 32.0310 -88.6190 57° Northeast 333 383 37,000  Level FlightAware
02:57PM 32.0570 -88.5720 57° Northeast 333 383 37,000  Level FlightAware
02:58PM 32.0820 -88.5260 57° Northeast 333 383 37,000  Level FlightAware
02:58PM 32.1080 -88.4790 57° Northeast 333 383 37,000  Level FlightAware
02:59PM 32.1340 -88.4320 57° Northeast 333 383 37,000  Level FlightAware
03:00PM 32.1640 -88.3770 57° Northeast 333 383 37,000  Level FlightAware
03:00PM 32.1900 -88.3300 57° Northeast 333 383 37,000  Level FlightAware
03:01PM 32.2170 -88.2820 56° Northeast 333 383 37,000  Level FlightAware
03:02PM 32.2420 -88.2350 58° Northeast 333 383 37,000 -480 Level FlightAware
03:02PM 32.2790 -88.0290 78° East 356 410 36,400 -480 Descending FlightAware
03:03PM 32.2990 -87.9740 67° East 356 410 36,400  Level FlightAware
03:03PM 32.3170 -87.9220 68° East 356 410 36,400 -1,080 Level FlightAware
03:04PM 32.3470 -87.8400 67° East 369 425 35,300 -1,020 Descending FlightAware
03:04PM 32.3690 -87.7780 67° East 369 425 35,300  Level FlightAware
03:05PM 32.3900 -87.7200 67° East 369 425 35,300  Level FlightAware
03:06PM 32.4100 -87.6630 67° East 369 425 35,300 -1,140 Level FlightAware
03:06PM 32.4440 -87.5680 67° East 373 429 34,000 -1,140 Descending FlightAware
03:07PM 32.4670 -87.5050 67° East 373 429 34,000 -1,080 Level FlightAware
03:07PM 32.4970 -87.4200 67° East 384 442 32,700 -1,140 Descending FlightAware
03:08PM 32.5320 -87.3230 67° East 386 444 32,300 -780 Descending FlightAware
03:09PM 32.5630 -87.2350 67° East 387 445 31,500 -900 Descending FlightAware
03:10PM 32.5890 -87.1590 68° East 389 448 31,100 -360 Descending FlightAware
03:10PM 32.6110 -87.0990 66° East 389 448 31,100 -1,500 Level FlightAware
03:11PM 32.6470 -86.9960 67° East 394 453 29,200 -1,440 Descending FlightAware
03:12PM 32.6700 -86.9300 67° East 394 453 29,200 -1,020 Level FlightAware
03:12PM 32.7010 -86.8410 67° East 390 449 27,900 -1,560 Descending FlightAware
03:13PM 32.7200 -86.7850 68° East 388 447 27,500 -960 Descending FlightAware
03:14PM 32.7500 -86.6990 67° East 387 445 26,800 -1,020 Descending FlightAware
03:14PM 32.7730 -86.6330 67° East 387 445 26,200 -1,020 Descending FlightAware
03:15PM 32.7980 -86.5600 68° East 387 445 25,600 -1,020 Descending FlightAware
03:15PM 32.8210 -86.4950 67° East 387 445 25,100 -540 Descending FlightAware
03:16PM 32.8460 -86.4250 67° East 387 445 25,000 -840 Descending FlightAware
03:17PM 32.8740 -86.3410 68° East 381 438 24,000 -780 Descending FlightAware
03:17PM 32.8980 -86.2720 67° East 380 437 24,000  Level FlightAware
03:18PM 32.9250 -86.1910 68° East 371 427 24,000  Level FlightAware
03:19PM 32.9510 -86.1140 68° East 368 423 24,000 -540 Level FlightAware
03:19PM 32.9710 -86.0570 67° East 376 433 23,400 -1,320 Descending FlightAware
03:20PM 32.9930 -85.9910 68° East 386 444 22,600 -1,320 Descending FlightAware
03:20PM 33.0140 -85.9300 68° East 384 442 22,000 -1,260 Descending FlightAware
03:21PM 33.0360 -85.8650 68° East 376 433 21,200 -1,020 Descending FlightAware
03:22PM 33.0700 -85.7650 68° East 370 426 20,500 -1,380 Descending FlightAware
03:22PM 33.0990 -85.6790 68° East 365 420 19,000 -1,800 Descending FlightAware
03:23PM 33.1200 -85.6160 68° East 361 415 18,300 -1,380 Descending FlightAware
03:24PM 33.1430 -85.5460 69° East 355 409 17,400 -1,500 Descending FlightAware
03:24PM 33.1620 -85.4880 69° East 349 402 16,600 -1,620 Descending FlightAware
03:25PM 33.1820 -85.4300 68° East 347 399 15,700 -1,680 Descending FlightAware
03:25PM 33.2040 -85.3640 68° East 345 397 14,700 -1,560 Descending FlightAware
03:26PM 33.2260 -85.3000 68° East 340 391 13,800 -1,620 Descending FlightAware
03:27PM 33.2460 -85.2380 69° East 330 380 12,800 -1,620 Descending FlightAware
03:27PM 33.2640 -85.1850 68° East 323 372 12,000 -1,500 Descending FlightAware
03:27PM 33.2770 -85.1480 67° East 318 366 11,400 -1,740 Descending FlightAware
03:28PM 33.2860 -85.1360 48° Northeast 313 360 11,100 -1,500 Descending FlightAware
03:28PM 33.3050 -85.1250 26° Northeast 299 344 10,800 -780 Descending FlightAware
03:28PM 33.3280 -85.1240 North 285 328 10,700 -360 Descending FlightAware
03:29PM 33.3690 -85.1120 14° North 269 310 10,500 -660 Descending FlightAware
03:29PM 33.4090 -85.0970 17° North 277 319 10,000 -1,080 Descending FlightAware
03:30PM 33.4390 -85.0850 18° North 292 336 9,500 -1,200 Descending FlightAware
03:30PM 33.4710 -85.0710 20° North 301 346 9,100 -960 Descending FlightAware
03:30PM 33.4960 -85.0590 22° Northeast 303 349 8,800 -960 Descending FlightAware
03:31PM 33.5120 -85.0520 20° North 303 349 8,600 -1,140 Descending FlightAware
03:31PM 33.5380 -85.0400 21° North 296 341 8,200 -1,140 Descending FlightAware
03:31PM 33.5680 -85.0280 18° North 283 326 7,800 -960 Descending FlightAware
03:32PM 33.5910 -85.0180 20° North 272 313 7,500 -1,020 Descending FlightAware
03:32PM 33.6100 -85.0100 19° North 268 308 7,200 -1,020 Descending FlightAware
03:32PM 33.6280 -85.0030 18° North 269 310 7,000 -900 Descending FlightAware
03:32PM 33.6440 -84.9960 20° North 271 312 6,700 -1,080 Descending FlightAware
03:33PM 33.6740 -84.9830 20° North 275 316 6,300 -1,200 Descending FlightAware
03:33PM 33.6950 -84.9740 20° North 279 321 6,000 -1,080 Descending FlightAware
03:33PM 33.7150 -84.9660 18° North 281 323 5,700 -1,080 Descending FlightAware
03:34PM 33.7430 -84.9530 21° North 281 323 5,300 -1,080 Descending FlightAware
03:34PM 33.7710 -84.9410 20° North 275 316 4,900 -960 Descending FlightAware
03:34PM 33.7860 -84.9350 18° North 272 313 4,800 -420 Descending FlightAware
03:35PM 33.8090 -84.9260 18° North 271 312 4,700 -180 Descending FlightAware
03:35PM 33.8390 -84.9140 18° North 271 312 4,700  Level FlightAware
03:36PM 33.8760 -84.8990 19° North 270 311 4,700  Level FlightAware
03:36PM 33.8850 -84.8920 33° Northeast 269 310 4,700  Level FlightAware
03:36PM 33.9110 -84.8780 24° Northeast 269 310 4,700 -120 Level FlightAware
03:37PM 33.9220 -84.7980 81° East 274 315 4,600 -600 Descending FlightAware
03:37PM 33.9330 -84.7620 70° East 275 316 4,100 -1,140 Descending FlightAware
03:38PM 33.9400 -84.7380 71° East 275 316 3,800 -600 Descending FlightAware
03:38PM 33.9480 -84.7140 68° East 270 311 3,800 -540 Level FlightAware
03:38PM 33.9590 -84.6860 65° Northeast 245 282 3,500 -1,200 Descending FlightAware
03:39PM 33.9670 -84.6630 67° East 234 269 3,000 -1,200 Descending FlightAware
03:39PM 33.9780 -84.6400 60° Northeast 221 254 2,700 -720 Descending FlightAware
03:39PM 33.9830 -84.6230 70° East 210 242 2,600 -180 Descending FlightAware
03:39PM 33.9850 -84.6020 83° East 189 217 2,600 -180 Level FlightAware
03:40PM 33.9870 -84.5810 83° East 182 209 2,500 -600 Descending FlightAware
03:40PM 33.9880 -84.5620 86° East 174 200 2,200 -840 Descending FlightAware
03:40PM 33.9920 -84.5560 51° Northeast 155 178 2,100 -480 Descending FlightAware
03:40PM 33.9940 -84.5540 40° Northeast 145 167 2,100 -1,020 Level FlightAware
03:40PM 33.9990 -84.5540 360° North 134 154 1,900 -1,320 Descending FlightAware
03:41PM 34.0120 -84.5610 336° Northwest 125 144 1,400 -1,200 Descending FlightAware
03:41PM 34.0140 -84.5690 287° West 127 146 1,200 -1,140 Descending FlightAware
03:41PM 34.0140 -84.5720 270° West 126 145 1,100 -1,500 Descending FlightAware
03:41PM 34.0140 -84.5750 270° West 126 145 1,000 -1,500 Descending FlightAware